sensor_id;sensor_type;location;lat;lon;timestamp;temperature;humidity
25550;DHT22;13444;50.562;7.262;2023-05-17T00:00:52;11.60;99.90
25550;DHT22;13444;50.562;7.262;2023-05-17T00:03:17;11.60;99.90
25550;DHT22;13444;50.562;7.262;2023-05-17T00:05:43;11.50;99.90
25550;DHT22;13444;50.562;7.262;2023-05-17T00:08:09;11.50;99.90
25550;DHT22;13444;50.562;7.262;2023-05-17T00:10:34;11.50;99.90
25550;DHT22;13444;50.562;7.262;2023-05-17T00:13:00;11.50;99.90
25550;DHT22;13444;50.562;7.262;2023-05-17T00:15:25;11.50;99.90
25550;DHT22;13444;50.562;7.262;2023-05-17T00:17:51;11.50;99.90
25550;DHT22;13444;50.562;7.262;2023-05-17T00:20:16;11.40;99.90
25550;DHT22;13444;50.562;7.262;2023-05-17T00:22:42;11.40;99.90
25550;DHT22;13444;50.562;7.262;2023-05-17T00:25:09;11.30;99.90
25550;DHT22;13444;50.562;7.262;2023-05-17T00:27:35;11.30;99.90
25550;DHT22;13444;50.562;7.262;2023-05-17T00:30:01;11.30;99.90
25550;DHT22;13444;50.562;7.262;2023-05-17T00:32:26;11.30;99.90
25550;DHT22;13444;50.562;7.262;2023-05-17T00:34:52;11.30;99.90
25550;DHT22;13444;50.562;7.262;2023-05-17T00:37:17;11.20;99.90
25550;DHT22;13444;50.562;7.262;2023-05-17T00:39:43;11.20;99.90
25550;DHT22;13444;50.562;7.262;2023-05-17T00:42:09;11.10;99.90
25550;DHT22;13444;50.562;7.262;2023-05-17T00:44:35;11.10;99.90
25550;DHT22;13444;50.562;7.262;2023-05-17T00:47:01;11.00;99.90
25550;DHT22;13444;50.562;7.262;2023-05-17T00:49:27;11.00;99.90
25550;DHT22;13444;50.562;7.262;2023-05-17T00:51:53;11.00;99.90
25550;DHT22;13444;50.562;7.262;2023-05-17T00:54:20;11.00;99.90
25550;DHT22;13444;50.562;7.262;2023-05-17T00:56:45;10.90;99.90
25550;DHT22;13444;50.562;7.262;2023-05-17T00:59:12;10.90;99.90
25550;DHT22;13444;50.562;7.262;2023-05-17T01:01:41;10.90;99.90
25550;DHT22;13444;50.562;7.262;2023-05-17T01:04:08;10.90;99.90
25550;DHT22;13444;50.562;7.262;2023-05-17T01:06:35;10.90;99.90
25550;DHT22;13444;50.562;7.262;2023-05-17T01:09:01;10.90;99.90
25550;DHT22;13444;50.562;7.262;2023-05-17T01:11:47;10.90;99.90
25550;DHT22;13444;50.562;7.262;2023-05-17T01:14:31;10.90;99.90
25550;DHT22;13444;50.562;7.262;2023-05-17T01:23:06;10.80;99.90
25550;DHT22;13444;50.562;7.262;2023-05-17T01:25:55;10.80;99.90
25550;DHT22;13444;50.562;7.262;2023-05-17T01:28:22;10.70;99.90
25550;DHT22;13444;50.562;7.262;2023-05-17T01:30:50;10.70;99.90
25550;DHT22;13444;50.562;7.262;2023-05-17T01:33:17;10.70;99.90
25550;DHT22;13444;50.562;7.262;2023-05-17T01:35:44;10.60;99.90
25550;DHT22;13444;50.562;7.262;2023-05-17T01:38:09;10.60;99.90
25550;DHT22;13444;50.562;7.262;2023-05-17T01:40:39;10.50;99.90
25550;DHT22;13444;50.562;7.262;2023-05-17T01:43:34;10.50;99.90
25550;DHT22;13444;50.562;7.262;2023-05-17T01:52:28;10.20;99.90
25550;DHT22;13444;50.562;7.262;2023-05-17T01:55:18;10.10;99.90
25550;DHT22;13444;50.562;7.262;2023-05-17T01:57:52;10.10;99.90
25550;DHT22;13444;50.562;7.262;2023-05-17T02:00:18;10.00;99.90
25550;DHT22;13444;50.562;7.262;2023-05-17T02:02:46;10.00;99.90
25550;DHT22;13444;50.562;7.262;2023-05-17T02:05:12;9.90;99.90
25550;DHT22;13444;50.562;7.262;2023-05-17T02:07:37;9.80;99.90
25550;DHT22;13444;50.562;7.262;2023-05-17T02:10:04;9.80;99.90
25550;DHT22;13444;50.562;7.262;2023-05-17T02:12:30;9.80;99.90
25550;DHT22;13444;50.562;7.262;2023-05-17T02:14:55;9.80;99.90
25550;DHT22;13444;50.562;7.262;2023-05-17T02:17:20;9.70;99.90
25550;DHT22;13444;50.562;7.262;2023-05-17T02:19:46;9.70;99.90
25550;DHT22;13444;50.562;7.262;2023-05-17T02:22:11;9.70;99.90
25550;DHT22;13444;50.562;7.262;2023-05-17T02:24:37;9.70;99.90
25550;DHT22;13444;50.562;7.262;2023-05-17T02:27:03;9.70;99.90
25550;DHT22;13444;50.562;7.262;2023-05-17T02:29:28;9.70;99.90
25550;DHT22;13444;50.562;7.262;2023-05-17T02:31:54;9.70;99.90
25550;DHT22;13444;50.562;7.262;2023-05-17T02:34:19;9.70;99.90
25550;DHT22;13444;50.562;7.262;2023-05-17T02:36:45;9.70;99.90
25550;DHT22;13444;50.562;7.262;2023-05-17T02:39:11;9.70;99.90
25550;DHT22;13444;50.562;7.262;2023-05-17T02:41:36;9.70;99.90
25550;DHT22;13444;50.562;7.262;2023-05-17T02:44:02;9.70;99.90
25550;DHT22;13444;50.562;7.262;2023-05-17T02:46:27;9.70;99.90
25550;DHT22;13444;50.562;7.262;2023-05-17T02:48:53;9.70;99.90
25550;DHT22;13444;50.562;7.262;2023-05-17T02:51:18;9.70;99.90
25550;DHT22;13444;50.562;7.262;2023-05-17T02:53:44;9.70;99.90
25550;DHT22;13444;50.562;7.262;2023-05-17T02:56:10;9.70;99.90
25550;DHT22;13444;50.562;7.262;2023-05-17T02:58:36;9.70;99.90
25550;DHT22;13444;50.562;7.262;2023-05-17T03:01:01;9.60;99.90
25550;DHT22;13444;50.562;7.262;2023-05-17T03:03:27;9.60;99.90
25550;DHT22;13444;50.562;7.262;2023-05-17T03:05:53;9.60;99.90
25550;DHT22;13444;50.562;7.262;2023-05-17T03:08:18;9.60;99.90
25550;DHT22;13444;50.562;7.262;2023-05-17T03:10:44;9.60;99.90
25550;DHT22;13444;50.562;7.262;2023-05-17T03:13:09;9.60;99.90
25550;DHT22;13444;50.562;7.262;2023-05-17T03:15:35;9.60;99.90
25550;DHT22;13444;50.562;7.262;2023-05-17T03:18:01;9.60;99.90
25550;DHT22;13444;50.562;7.262;2023-05-17T03:20:26;9.50;99.90
25550;DHT22;13444;50.562;7.262;2023-05-17T03:22:52;9.60;99.90
25550;DHT22;13444;50.562;7.262;2023-05-17T03:25:17;9.60;99.90
25550;DHT22;13444;50.562;7.262;2023-05-17T03:27:43;9.60;99.90
25550;DHT22;13444;50.562;7.262;2023-05-17T03:30:08;9.60;99.90
25550;DHT22;13444;50.562;7.262;2023-05-17T03:32:34;9.70;99.90
25550;DHT22;13444;50.562;7.262;2023-05-17T03:35:01;9.60;99.90
25550;DHT22;13444;50.562;7.262;2023-05-17T03:37:27;9.70;99.90
25550;DHT22;13444;50.562;7.262;2023-05-17T03:39:52;9.70;99.90
25550;DHT22;13444;50.562;7.262;2023-05-17T03:42:18;9.70;99.90
25550;DHT22;13444;50.562;7.262;2023-05-17T03:44:44;9.70;99.90
25550;DHT22;13444;50.562;7.262;2023-05-17T03:47:10;9.70;99.90
25550;DHT22;13444;50.562;7.262;2023-05-17T03:49:35;9.70;99.90
25550;DHT22;13444;50.562;7.262;2023-05-17T03:52:01;9.70;99.90
25550;DHT22;13444;50.562;7.262;2023-05-17T03:54:27;9.70;99.90
25550;DHT22;13444;50.562;7.262;2023-05-17T03:56:53;9.70;99.90
25550;DHT22;13444;50.562;7.262;2023-05-17T03:59:18;9.70;99.90
25550;DHT22;13444;50.562;7.262;2023-05-17T04:01:44;9.70;99.90
25550;DHT22;13444;50.562;7.262;2023-05-17T04:04:10;9.60;99.90
25550;DHT22;13444;50.562;7.262;2023-05-17T04:06:36;9.70;99.90
25550;DHT22;13444;50.562;7.262;2023-05-17T04:09:01;9.70;99.90
25550;DHT22;13444;50.562;7.262;2023-05-17T04:11:27;9.80;99.90
25550;DHT22;13444;50.562;7.262;2023-05-17T04:13:53;9.80;99.90
25550;DHT22;13444;50.562;7.262;2023-05-17T04:16:19;9.80;99.90
25550;DHT22;13444;50.562;7.262;2023-05-17T04:18:46;9.90;99.90
25550;DHT22;13444;50.562;7.262;2023-05-17T04:21:11;9.90;99.90
25550;DHT22;13444;50.562;7.262;2023-05-17T04:23:37;9.90;99.90
25550;DHT22;13444;50.562;7.262;2023-05-17T04:26:03;9.90;99.90
25550;DHT22;13444;50.562;7.262;2023-05-17T04:28:30;9.90;99.90
25550;DHT22;13444;50.562;7.262;2023-05-17T04:30:56;9.90;99.90
25550;DHT22;13444;50.562;7.262;2023-05-17T04:33:22;10.00;99.90
25550;DHT22;13444;50.562;7.262;2023-05-17T04:35:50;10.00;99.90
25550;DHT22;13444;50.562;7.262;2023-05-17T04:38:18;10.00;99.90
25550;DHT22;13444;50.562;7.262;2023-05-17T04:40:44;10.00;99.90
25550;DHT22;13444;50.562;7.262;2023-05-17T04:43:09;10.10;99.90
25550;DHT22;13444;50.562;7.262;2023-05-17T04:45:35;10.10;99.90
25550;DHT22;13444;50.562;7.262;2023-05-17T04:48:02;10.10;99.90
25550;DHT22;13444;50.562;7.262;2023-05-17T04:50:27;10.10;99.90
25550;DHT22;13444;50.562;7.262;2023-05-17T04:53:02;10.10;99.90
25550;DHT22;13444;50.562;7.262;2023-05-17T04:55:28;10.10;99.90
25550;DHT22;13444;50.562;7.262;2023-05-17T04:57:53;10.10;99.90
25550;DHT22;13444;50.562;7.262;2023-05-17T05:00:19;10.10;99.90
25550;DHT22;13444;50.562;7.262;2023-05-17T05:02:47;10.10;99.90
25550;DHT22;13444;50.562;7.262;2023-05-17T05:05:12;10.10;99.90
25550;DHT22;13444;50.562;7.262;2023-05-17T05:07:38;10.10;99.90
25550;DHT22;13444;50.562;7.262;2023-05-17T05:10:05;10.10;99.90
25550;DHT22;13444;50.562;7.262;2023-05-17T05:12:30;10.20;99.90
25550;DHT22;13444;50.562;7.262;2023-05-17T05:14:56;10.20;99.90
25550;DHT22;13444;50.562;7.262;2023-05-17T05:17:21;10.30;99.90
25550;DHT22;13444;50.562;7.262;2023-05-17T05:19:47;10.30;99.90
25550;DHT22;13444;50.562;7.262;2023-05-17T05:22:12;10.30;99.90
25550;DHT22;13444;50.562;7.262;2023-05-17T05:24:38;10.40;99.90
25550;DHT22;13444;50.562;7.262;2023-05-17T05:27:03;10.40;99.90
25550;DHT22;13444;50.562;7.262;2023-05-17T05:29:29;10.40;99.90
25550;DHT22;13444;50.562;7.262;2023-05-17T05:31:54;10.50;99.90
25550;DHT22;13444;50.562;7.262;2023-05-17T05:34:20;10.40;99.90
25550;DHT22;13444;50.562;7.262;2023-05-17T05:36:45;10.40;99.90
25550;DHT22;13444;50.562;7.262;2023-05-17T05:39:11;10.50;99.90
25550;DHT22;13444;50.562;7.262;2023-05-17T05:41:37;10.40;99.90
25550;DHT22;13444;50.562;7.262;2023-05-17T05:44:02;10.40;99.90
25550;DHT22;13444;50.562;7.262;2023-05-17T05:46:28;10.40;99.90
25550;DHT22;13444;50.562;7.262;2023-05-17T05:48:53;10.40;99.90
25550;DHT22;13444;50.562;7.262;2023-05-17T05:51:19;10.50;99.90
25550;DHT22;13444;50.562;7.262;2023-05-17T05:53:44;10.40;99.90
25550;DHT22;13444;50.562;7.262;2023-05-17T05:56:10;10.40;99.90
25550;DHT22;13444;50.562;7.262;2023-05-17T05:58:36;10.40;99.90
25550;DHT22;13444;50.562;7.262;2023-05-17T06:01:01;10.40;99.90
25550;DHT22;13444;50.562;7.262;2023-05-17T06:03:27;10.50;99.90
25550;DHT22;13444;50.562;7.262;2023-05-17T06:05:54;10.40;99.90
25550;DHT22;13444;50.562;7.262;2023-05-17T06:08:19;10.50;99.90
25550;DHT22;13444;50.562;7.262;2023-05-17T06:10:45;10.60;99.90
25550;DHT22;13444;50.562;7.262;2023-05-17T06:13:11;10.60;99.90
25550;DHT22;13444;50.562;7.262;2023-05-17T06:15:36;10.70;99.90
25550;DHT22;13444;50.562;7.262;2023-05-17T06:18:02;10.70;99.90
25550;DHT22;13444;50.562;7.262;2023-05-17T06:20:28;10.70;99.90
25550;DHT22;13444;50.562;7.262;2023-05-17T06:22:53;10.80;99.90
25550;DHT22;13444;50.562;7.262;2023-05-17T06:25:19;10.80;99.90
25550;DHT22;13444;50.562;7.262;2023-05-17T06:27:45;10.90;99.90
25550;DHT22;13444;50.562;7.262;2023-05-17T06:30:11;11.00;99.90
25550;DHT22;13444;50.562;7.262;2023-05-17T06:32:36;11.00;99.90
25550;DHT22;13444;50.562;7.262;2023-05-17T06:35:02;11.10;99.90
25550;DHT22;13444;50.562;7.262;2023-05-17T06:37:28;11.10;99.90
25550;DHT22;13444;50.562;7.262;2023-05-17T06:40:01;11.20;99.90
25550;DHT22;13444;50.562;7.262;2023-05-17T06:42:26;11.30;99.90
25550;DHT22;13444;50.562;7.262;2023-05-17T06:44:52;11.30;99.90
25550;DHT22;13444;50.562;7.262;2023-05-17T06:47:18;11.40;99.90
25550;DHT22;13444;50.562;7.262;2023-05-17T06:49:44;11.40;99.90
25550;DHT22;13444;50.562;7.262;2023-05-17T06:52:09;11.30;99.90
25550;DHT22;13444;50.562;7.262;2023-05-17T06:54:35;11.30;99.90
25550;DHT22;13444;50.562;7.262;2023-05-17T06:57:01;11.20;99.90
25550;DHT22;13444;50.562;7.262;2023-05-17T06:59:27;11.20;99.90
25550;DHT22;13444;50.562;7.262;2023-05-17T07:01:52;11.20;99.90
25550;DHT22;13444;50.562;7.262;2023-05-17T07:04:19;11.10;99.90
25550;DHT22;13444;50.562;7.262;2023-05-17T07:06:45;11.00;99.90
25550;DHT22;13444;50.562;7.262;2023-05-17T07:09:11;10.90;99.90
25550;DHT22;13444;50.562;7.262;2023-05-17T07:11:37;10.90;99.90
25550;DHT22;13444;50.562;7.262;2023-05-17T07:14:02;10.90;99.90
25550;DHT22;13444;50.562;7.262;2023-05-17T07:16:28;10.80;99.90
25550;DHT22;13444;50.562;7.262;2023-05-17T07:18:53;10.90;99.90
25550;DHT22;13444;50.562;7.262;2023-05-17T07:21:19;10.90;99.90
25550;DHT22;13444;50.562;7.262;2023-05-17T07:23:44;11.00;99.90
25550;DHT22;13444;50.562;7.262;2023-05-17T07:26:10;11.00;99.90
25550;DHT22;13444;50.562;7.262;2023-05-17T07:28:35;11.10;99.90
25550;DHT22;13444;50.562;7.262;2023-05-17T07:31:01;11.20;99.90
25550;DHT22;13444;50.562;7.262;2023-05-17T07:33:27;11.20;99.90
25550;DHT22;13444;50.562;7.262;2023-05-17T07:35:52;11.20;99.90
25550;DHT22;13444;50.562;7.262;2023-05-17T07:38:18;11.30;99.90
25550;DHT22;13444;50.562;7.262;2023-05-17T07:40:43;11.30;99.90
25550;DHT22;13444;50.562;7.262;2023-05-17T07:43:09;11.40;99.90
25550;DHT22;13444;50.562;7.262;2023-05-17T07:45:34;11.50;99.90
25550;DHT22;13444;50.562;7.262;2023-05-17T07:48:00;11.60;99.90
25550;DHT22;13444;50.562;7.262;2023-05-17T07:50:26;11.80;99.90
25550;DHT22;13444;50.562;7.262;2023-05-17T07:52:52;12.20;99.90
25550;DHT22;13444;50.562;7.262;2023-05-17T07:55:17;12.40;99.90
25550;DHT22;13444;50.562;7.262;2023-05-17T07:57:44;12.50;99.90
25550;DHT22;13444;50.562;7.262;2023-05-17T08:00:12;12.60;99.90
25550;DHT22;13444;50.562;7.262;2023-05-17T08:02:38;12.70;99.90
25550;DHT22;13444;50.562;7.262;2023-05-17T08:05:04;12.70;99.90
25550;DHT22;13444;50.562;7.262;2023-05-17T08:07:30;12.90;99.90
25550;DHT22;13444;50.562;7.262;2023-05-17T08:09:55;13.20;99.90
25550;DHT22;13444;50.562;7.262;2023-05-17T08:12:21;13.50;99.90
25550;DHT22;13444;50.562;7.262;2023-05-17T08:14:46;13.50;99.90
25550;DHT22;13444;50.562;7.262;2023-05-17T08:17:12;13.40;99.90
25550;DHT22;13444;50.562;7.262;2023-05-17T08:19:37;13.30;99.90
25550;DHT22;13444;50.562;7.262;2023-05-17T08:22:03;13.30;99.90
25550;DHT22;13444;50.562;7.262;2023-05-17T08:24:29;13.30;99.90
25550;DHT22;13444;50.562;7.262;2023-05-17T08:26:54;13.30;99.90
25550;DHT22;13444;50.562;7.262;2023-05-17T08:29:20;13.60;99.90
25550;DHT22;13444;50.562;7.262;2023-05-17T08:31:46;13.60;99.90
25550;DHT22;13444;50.562;7.262;2023-05-17T08:34:11;13.30;99.90
25550;DHT22;13444;50.562;7.262;2023-05-17T08:36:37;13.30;99.90
25550;DHT22;13444;50.562;7.262;2023-05-17T08:39:03;13.30;99.90
25550;DHT22;13444;50.562;7.262;2023-05-17T08:41:29;13.30;99.90
25550;DHT22;13444;50.562;7.262;2023-05-17T08:43:55;13.60;99.90
25550;DHT22;13444;50.562;7.262;2023-05-17T08:46:24;14.10;99.90
25550;DHT22;13444;50.562;7.262;2023-05-17T08:48:51;14.50;99.90
25550;DHT22;13444;50.562;7.262;2023-05-17T08:51:18;14.80;99.90
25550;DHT22;13444;50.562;7.262;2023-05-17T08:53:44;14.80;99.90
25550;DHT22;13444;50.562;7.262;2023-05-17T08:56:13;14.70;99.90
25550;DHT22;13444;50.562;7.262;2023-05-17T08:58:42;14.80;99.90
25550;DHT22;13444;50.562;7.262;2023-05-17T09:01:07;15.10;99.90
25550;DHT22;13444;50.562;7.262;2023-05-17T09:03:35;15.30;99.90
25550;DHT22;13444;50.562;7.262;2023-05-17T09:06:01;15.30;99.90
25550;DHT22;13444;50.562;7.262;2023-05-17T09:08:27;15.70;99.90
25550;DHT22;13444;50.562;7.262;2023-05-17T09:10:54;15.80;99.90
25550;DHT22;13444;50.562;7.262;2023-05-17T09:13:23;15.90;99.90
25550;DHT22;13444;50.562;7.262;2023-05-17T09:15:49;16.30;99.90
25550;DHT22;13444;50.562;7.262;2023-05-17T09:18:15;16.40;99.90
25550;DHT22;13444;50.562;7.262;2023-05-17T09:20:41;16.40;99.90
25550;DHT22;13444;50.562;7.262;2023-05-17T09:23:09;16.60;99.90
25550;DHT22;13444;50.562;7.262;2023-05-17T09:25:35;16.40;99.90
25550;DHT22;13444;50.562;7.262;2023-05-17T09:28:04;16.40;99.90
25550;DHT22;13444;50.562;7.262;2023-05-17T09:30:32;16.20;99.90
25550;DHT22;13444;50.562;7.262;2023-05-17T09:33:09;16.20;99.90
25550;DHT22;13444;50.562;7.262;2023-05-17T09:35:36;16.10;99.90
25550;DHT22;13444;50.562;7.262;2023-05-17T09:38:10;16.20;99.90
25550;DHT22;13444;50.562;7.262;2023-05-17T09:40:41;16.50;99.90
25550;DHT22;13444;50.562;7.262;2023-05-17T09:43:07;16.70;99.90
25550;DHT22;13444;50.562;7.262;2023-05-17T09:45:33;17.40;99.90
25550;DHT22;13444;50.562;7.262;2023-05-17T09:48:14;18.00;99.90
25550;DHT22;13444;50.562;7.262;2023-05-17T09:50:49;17.70;99.90
25550;DHT22;13444;50.562;7.262;2023-05-17T09:53:25;17.40;99.90
25550;DHT22;13444;50.562;7.262;2023-05-17T09:55:58;17.20;99.90
25550;DHT22;13444;50.562;7.262;2023-05-17T09:58:25;17.20;99.90
25550;DHT22;13444;50.562;7.262;2023-05-17T10:00:53;17.10;99.90
25550;DHT22;13444;50.562;7.262;2023-05-17T10:03:19;16.90;99.90
25550;DHT22;13444;50.562;7.262;2023-05-17T10:05:45;16.80;99.90
25550;DHT22;13444;50.562;7.262;2023-05-17T10:08:13;16.70;99.90
25550;DHT22;13444;50.562;7.262;2023-05-17T10:10:40;16.70;99.90
25550;DHT22;13444;50.562;7.262;2023-05-17T10:13:11;17.10;99.90
25550;DHT22;13444;50.562;7.262;2023-05-17T10:15:39;17.70;99.90
25550;DHT22;13444;50.562;7.262;2023-05-17T10:18:08;17.80;99.90
25550;DHT22;13444;50.562;7.262;2023-05-17T10:20:34;17.70;99.90
25550;DHT22;13444;50.562;7.262;2023-05-17T10:23:01;17.20;99.90
25550;DHT22;13444;50.562;7.262;2023-05-17T10:25:29;17.10;99.90
25550;DHT22;13444;50.562;7.262;2023-05-17T10:27:55;17.80;99.90
25550;DHT22;13444;50.562;7.262;2023-05-17T10:30:21;18.60;99.90
25550;DHT22;13444;50.562;7.262;2023-05-17T10:32:48;19.20;99.90
25550;DHT22;13444;50.562;7.262;2023-05-17T10:35:14;19.40;99.90
25550;DHT22;13444;50.562;7.262;2023-05-17T10:37:40;19.70;99.90
25550;DHT22;13444;50.562;7.262;2023-05-17T10:40:07;20.00;99.90
25550;DHT22;13444;50.562;7.262;2023-05-17T10:42:53;20.30;99.90
25550;DHT22;13444;50.562;7.262;2023-05-17T10:45:20;20.70;99.90
25550;DHT22;13444;50.562;7.262;2023-05-17T10:47:49;20.90;99.90
25550;DHT22;13444;50.562;7.262;2023-05-17T10:50:23;21.30;99.90
25550;DHT22;13444;50.562;7.262;2023-05-17T10:52:50;21.00;99.90
25550;DHT22;13444;50.562;7.262;2023-05-17T10:55:23;21.20;99.90
25550;DHT22;13444;50.562;7.262;2023-05-17T10:58:13;21.10;99.90
25550;DHT22;13444;50.562;7.262;2023-05-17T11:00:50;21.80;99.90
25550;DHT22;13444;50.562;7.262;2023-05-17T11:03:19;21.90;99.90
25550;DHT22;13444;50.562;7.262;2023-05-17T11:08:31;20.90;99.90
25550;DHT22;13444;50.562;7.262;2023-05-17T11:11:16;20.40;99.90
25550;DHT22;13444;50.562;7.262;2023-05-17T11:13:55;20.10;99.90
25550;DHT22;13444;50.562;7.262;2023-05-17T11:16:26;20.50;99.90
25550;DHT22;13444;50.562;7.262;2023-05-17T11:18:53;21.00;99.90
25550;DHT22;13444;50.562;7.262;2023-05-17T11:21:20;21.20;99.90
25550;DHT22;13444;50.562;7.262;2023-05-17T11:23:47;21.20;99.90
25550;DHT22;13444;50.562;7.262;2023-05-17T11:26:22;21.60;99.90
25550;DHT22;13444;50.562;7.262;2023-05-17T11:29:04;22.00;99.90
25550;DHT22;13444;50.562;7.262;2023-05-17T11:31:32;22.00;99.90
25550;DHT22;13444;50.562;7.262;2023-05-17T11:33:59;21.50;99.90
25550;DHT22;13444;50.562;7.262;2023-05-17T11:36:25;21.80;99.90
25550;DHT22;13444;50.562;7.262;2023-05-17T11:39:13;22.20;99.90
25550;DHT22;13444;50.562;7.262;2023-05-17T11:41:47;22.70;99.90
25550;DHT22;13444;50.562;7.262;2023-05-17T11:44:15;22.20;99.90
25550;DHT22;13444;50.562;7.262;2023-05-17T11:46:41;21.80;99.90
25550;DHT22;13444;50.562;7.262;2023-05-17T11:49:07;21.80;99.90
25550;DHT22;13444;50.562;7.262;2023-05-17T11:51:33;21.80;99.90
25550;DHT22;13444;50.562;7.262;2023-05-17T11:53:59;21.60;99.90
25550;DHT22;13444;50.562;7.262;2023-05-17T11:56:33;21.80;99.90
25550;DHT22;13444;50.562;7.262;2023-05-17T11:58:59;22.00;99.90
25550;DHT22;13444;50.562;7.262;2023-05-17T12:01:25;22.40;99.90
25550;DHT22;13444;50.562;7.262;2023-05-17T12:03:56;22.80;99.90
25550;DHT22;13444;50.562;7.262;2023-05-17T12:06:25;23.20;99.90
25550;DHT22;13444;50.562;7.262;2023-05-17T12:08:53;22.90;99.90
25550;DHT22;13444;50.562;7.262;2023-05-17T12:11:19;22.40;99.90
25550;DHT22;13444;50.562;7.262;2023-05-17T12:13:46;22.30;99.90
25550;DHT22;13444;50.562;7.262;2023-05-17T12:16:14;22.50;99.90
25550;DHT22;13444;50.562;7.262;2023-05-17T12:18:43;22.10;99.90
25550;DHT22;13444;50.562;7.262;2023-05-17T12:21:13;22.10;99.90
25550;DHT22;13444;50.562;7.262;2023-05-17T12:23:41;22.30;99.90
25550;DHT22;13444;50.562;7.262;2023-05-17T12:26:12;22.60;99.90
25550;DHT22;13444;50.562;7.262;2023-05-17T12:28:40;22.50;99.80
25550;DHT22;13444;50.562;7.262;2023-05-17T12:31:11;22.20;96.40
25550;DHT22;13444;50.562;7.262;2023-05-17T12:33:40;21.30;99.90
25550;DHT22;13444;50.562;7.262;2023-05-17T12:36:07;21.70;99.90
25550;DHT22;13444;50.562;7.262;2023-05-17T12:38:34;21.90;99.60
25550;DHT22;13444;50.562;7.262;2023-05-17T12:41:02;22.10;99.90
25550;DHT22;13444;50.562;7.262;2023-05-17T12:43:29;22.30;99.50
25550;DHT22;13444;50.562;7.262;2023-05-17T12:46:12;22.60;99.90
25550;DHT22;13444;50.562;7.262;2023-05-17T12:48:40;22.10;99.20
25550;DHT22;13444;50.562;7.262;2023-05-17T12:53:42;22.30;99.90
25550;DHT22;13444;50.562;7.262;2023-05-17T12:56:14;22.60;99.40
25550;DHT22;13444;50.562;7.262;2023-05-17T12:58:40;22.60;97.40
25550;DHT22;13444;50.562;7.262;2023-05-17T13:01:06;22.10;98.90
25550;DHT22;13444;50.562;7.262;2023-05-17T13:03:33;22.30;98.80
25550;DHT22;13444;50.562;7.262;2023-05-17T13:06:06;22.50;99.00
25550;DHT22;13444;50.562;7.262;2023-05-17T13:08:33;22.40;97.30
25550;DHT22;13444;50.562;7.262;2023-05-17T13:11:12;22.10;96.10
25550;DHT22;13444;50.562;7.262;2023-05-17T13:13:39;21.50;99.30
25550;DHT22;13444;50.562;7.262;2023-05-17T13:16:05;21.60;99.50
25550;DHT22;13444;50.562;7.262;2023-05-17T13:18:49;21.90;98.90
25550;DHT22;13444;50.562;7.262;2023-05-17T13:21:17;21.80;98.10
25550;DHT22;13444;50.562;7.262;2023-05-17T13:23:44;22.00;98.10
25550;DHT22;13444;50.562;7.262;2023-05-17T13:26:10;22.20;97.80
25550;DHT22;13444;50.562;7.262;2023-05-17T13:28:38;22.00;97.20
25550;DHT22;13444;50.562;7.262;2023-05-17T13:31:03;21.40;96.40
25550;DHT22;13444;50.562;7.262;2023-05-17T13:33:29;21.30;99.80
25550;DHT22;13444;50.562;7.262;2023-05-17T13:35:55;21.60;99.90
25550;DHT22;13444;50.562;7.262;2023-05-17T13:38:21;22.00;99.90
25550;DHT22;13444;50.562;7.262;2023-05-17T13:40:46;22.20;99.10
25550;DHT22;13444;50.562;7.262;2023-05-17T13:43:12;21.90;98.30
25550;DHT22;13444;50.562;7.262;2023-05-17T13:45:38;21.60;98.70
25550;DHT22;13444;50.562;7.262;2023-05-17T13:48:03;21.60;99.10
25550;DHT22;13444;50.562;7.262;2023-05-17T13:50:29;21.50;99.40
25550;DHT22;13444;50.562;7.262;2023-05-17T13:52:54;21.60;99.40
25550;DHT22;13444;50.562;7.262;2023-05-17T13:55:20;21.50;99.00
25550;DHT22;13444;50.562;7.262;2023-05-17T13:57:46;21.30;99.40
25550;DHT22;13444;50.562;7.262;2023-05-17T14:00:12;21.10;98.40
25550;DHT22;13444;50.562;7.262;2023-05-17T14:02:37;21.10;99.70
25550;DHT22;13444;50.562;7.262;2023-05-17T14:05:04;20.80;99.30
25550;DHT22;13444;50.562;7.262;2023-05-17T14:07:31;20.50;99.70
25550;DHT22;13444;50.562;7.262;2023-05-17T14:09:57;20.40;99.90
25550;DHT22;13444;50.562;7.262;2023-05-17T14:12:23;20.30;99.90
25550;DHT22;13444;50.562;7.262;2023-05-17T14:14:48;20.30;99.90
25550;DHT22;13444;50.562;7.262;2023-05-17T14:17:14;20.50;99.90
25550;DHT22;13444;50.562;7.262;2023-05-17T14:19:39;20.10;99.90
25550;DHT22;13444;50.562;7.262;2023-05-17T14:22:05;19.80;99.90
25550;DHT22;13444;50.562;7.262;2023-05-17T14:24:30;19.80;99.90
25550;DHT22;13444;50.562;7.262;2023-05-17T14:26:56;19.60;99.90
25550;DHT22;13444;50.562;7.262;2023-05-17T14:29:22;19.50;99.90
25550;DHT22;13444;50.562;7.262;2023-05-17T14:31:47;19.50;99.90
25550;DHT22;13444;50.562;7.262;2023-05-17T14:34:13;19.70;99.90
25550;DHT22;13444;50.562;7.262;2023-05-17T14:36:38;19.80;99.90
25550;DHT22;13444;50.562;7.262;2023-05-17T14:39:04;19.60;99.90
25550;DHT22;13444;50.562;7.262;2023-05-17T14:41:30;19.40;99.90
25550;DHT22;13444;50.562;7.262;2023-05-17T14:43:55;19.40;99.90
25550;DHT22;13444;50.562;7.262;2023-05-17T14:46:21;19.30;99.90
25550;DHT22;13444;50.562;7.262;2023-05-17T14:48:47;19.30;99.90
25550;DHT22;13444;50.562;7.262;2023-05-17T14:51:12;19.40;99.90
25550;DHT22;13444;50.562;7.262;2023-05-17T14:53:38;19.30;99.90
25550;DHT22;13444;50.562;7.262;2023-05-17T14:56:04;19.30;99.90
25550;DHT22;13444;50.562;7.262;2023-05-17T14:58:29;19.20;99.90
25550;DHT22;13444;50.562;7.262;2023-05-17T15:00:55;19.10;99.90
25550;DHT22;13444;50.562;7.262;2023-05-17T15:03:26;19.10;99.90
25550;DHT22;13444;50.562;7.262;2023-05-17T15:05:53;19.00;99.90
25550;DHT22;13444;50.562;7.262;2023-05-17T15:08:20;18.90;99.90
25550;DHT22;13444;50.562;7.262;2023-05-17T15:10:48;18.80;99.90
25550;DHT22;13444;50.562;7.262;2023-05-17T15:13:14;18.70;99.90
25550;DHT22;13444;50.562;7.262;2023-05-17T15:15:39;18.70;99.90
25550;DHT22;13444;50.562;7.262;2023-05-17T15:18:05;18.60;99.90
25550;DHT22;13444;50.562;7.262;2023-05-17T15:20:31;18.60;99.90
25550;DHT22;13444;50.562;7.262;2023-05-17T15:22:57;18.70;99.90
25550;DHT22;13444;50.562;7.262;2023-05-17T15:25:22;18.50;99.90
25550;DHT22;13444;50.562;7.262;2023-05-17T15:27:48;18.40;99.90
25550;DHT22;13444;50.562;7.262;2023-05-17T15:30:14;18.40;99.90
25550;DHT22;13444;50.562;7.262;2023-05-17T15:32:39;18.40;99.90
25550;DHT22;13444;50.562;7.262;2023-05-17T15:35:06;18.50;99.90
25550;DHT22;13444;50.562;7.262;2023-05-17T15:37:32;18.60;99.90
25550;DHT22;13444;50.562;7.262;2023-05-17T15:40:06;18.70;99.90
25550;DHT22;13444;50.562;7.262;2023-05-17T15:42:32;18.80;99.90
25550;DHT22;13444;50.562;7.262;2023-05-17T15:44:58;18.70;99.90
25550;DHT22;13444;50.562;7.262;2023-05-17T15:47:23;18.60;99.90
25550;DHT22;13444;50.562;7.262;2023-05-17T15:49:49;18.40;99.90